Time;durP1;ratioP1;P1;durP2;ratioP2;P2;SDS_P1;SDS_P2;PMS_P1;PMS_P2;Temp;Humidity;BMP_temperature;BMP_pressure;BME280_temperature;BME280_humidity;BME280_pressure;Samples;Min_cycle;Max_cycle;Signal;HPM_P1;HPM_P2
2022/09/24 00:01:20;;;;;;;29.35;16.65;;;13.10;99.90;;;;;;5046614;28;20961;-74
2022/09/24 00:03:53;;;;;;;28.90;16.83;;;13.10;99.90;;;;;;5059301;28;20112;-74
2022/09/24 00:06:19;;;;;;;25.02;17.75;;;13.10;99.90;;;;;;5026202;28;20044;-74
2022/09/24 00:08:50;;;;;;;26.65;17.67;;;13.10;99.90;;;;;;5035010;28;20315;-74
2022/09/24 00:11:20;;;;;;;25.88;17.02;;;13.10;99.90;;;;;;5036346;28;20514;-74
2022/09/24 00:13:47;;;;;;;23.88;16.15;;;13.10;99.90;;;;;;5034812;28;20651;-74
2022/09/24 00:16:32;;;;;;;27.42;16.83;;;13.10;99.90;;;;;;5053326;28;20067;-75
2022/09/24 00:18:59;;;;;;;27.55;18.65;;;13.10;99.90;;;;;;5040307;28;20076;-75
2022/09/24 00:22:11;;;;;;;30.80;19.45;;;13.10;99.90;;;;;;5016961;28;20047;-75
2022/09/24 00:27:40;;;;;;;29.63;17.50;;;13.20;99.90;;;;;;5050319;28;20414;-76
2022/09/24 00:30:06;;;;;;;25.38;18.17;;;13.10;99.90;;;;;;5038544;28;20048;-77
2022/09/24 00:32:32;;;;;;;24.30;17.30;;;13.20;99.90;;;;;;5051182;28;20082;-77
2022/09/24 00:34:58;;;;;;;28.17;19.02;;;13.10;99.90;;;;;;5047252;28;20044;-76
2022/09/24 00:37:24;;;;;;;28.15;19.33;;;13.10;99.90;;;;;;5042480;28;20058;-77
2022/09/24 00:39:50;;;;;;;29.00;19.42;;;13.10;99.90;;;;;;5071255;28;20044;-75
2022/09/24 00:42:19;;;;;;;28.60;19.63;;;13.10;99.90;;;;;;5055012;28;20055;-75
2022/09/24 00:44:53;;;;;;;31.23;20.58;;;13.10;99.90;;;;;;5066183;28;20037;-74
2022/09/24 00:47:30;;;;;;;29.23;20.70;;;13.10;99.90;;;;;;5037396;28;20048;-74
2022/09/24 00:50:21;;;;;;;30.27;20.60;;;13.10;99.90;;;;;;5054476;28;20048;-74
2022/09/24 00:53:30;;;;;;;28.00;19.83;;;13.10;99.90;;;;;;5040769;28;20088;-74
2022/09/24 00:55:58;;;;;;;30.55;20.92;;;13.10;99.90;;;;;;5058127;28;20116;-73
2022/09/24 00:58:25;;;;;;;32.95;21.48;;;13.10;99.90;;;;;;5070541;28;20490;-74
2022/09/24 01:00:56;;;;;;;31.00;21.52;;;13.10;99.90;;;;;;5063624;28;20068;-73
2022/09/24 01:03:24;;;;;;;32.00;21.25;;;13.10;99.90;;;;;;5022552;28;20187;-73
2022/09/24 01:05:51;;;;;;;46.55;23.48;;;13.10;99.90;;;;;;5065474;28;20040;-73
2022/09/24 01:08:18;;;;;;;33.30;23.02;;;13.10;99.90;;;;;;5051212;28;20498;-73
2022/09/24 01:10:56;;;;;;;34.70;23.65;;;13.10;99.90;;;;;;5036147;28;20041;-73
2022/09/24 01:13:25;;;;;;;35.33;23.30;;;13.10;99.90;;;;;;5053825;28;20050;-73
2022/09/24 01:16:07;;;;;;;37.88;24.83;;;13.10;99.90;;;;;;5058217;28;20448;-73
2022/09/24 01:19:01;;;;;;;34.25;22.83;;;13.10;99.90;;;;;;5050257;28;20052;-73
2022/09/24 01:21:41;;;;;;;35.45;22.75;;;13.10;99.90;;;;;;5049016;28;20090;-73
2022/09/24 01:24:23;;;;;;;35.85;24.10;;;13.10;99.90;;;;;;5033878;28;20098;-74
2022/09/24 01:27:20;;;;;;;35.53;24.10;;;13.10;99.90;;;;;;5018889;28;20041;-73
2022/09/24 01:30:04;;;;;;;39.10;24.13;;;13.10;99.90;;;;;;5065523;28;20064;-73
2022/09/24 01:32:42;;;;;;;34.92;24.67;;;13.10;99.90;;;;;;5050996;28;20056;-73
2022/09/24 01:35:30;;;;;;;39.53;24.63;;;13.10;99.90;;;;;;5009900;28;20051;-73
2022/09/24 01:38:05;;;;;;;39.60;25.58;;;13.10;99.90;;;;;;5057732;28;20084;-74
2022/09/24 01:40:32;;;;;;;45.92;25.90;;;13.10;99.90;;;;;;5049773;28;20045;-73
2022/09/24 01:43:01;;;;;;;36.15;25.95;;;13.20;99.90;;;;;;5046645;28;20030;-73
2022/09/24 01:45:30;;;;;;;40.43;26.67;;;13.10;99.90;;;;;;5049141;28;20453;-73
2022/09/24 01:47:59;;;;;;;38.20;25.83;;;13.10;99.90;;;;;;5026543;28;20053;-73
2022/09/24 01:50:28;;;;;;;43.50;26.33;;;13.20;99.90;;;;;;5022172;28;20040;-73
2022/09/24 01:53:20;;;;;;;38.90;27.65;;;13.10;99.90;;;;;;5050158;28;20045;-73
2022/09/24 01:55:51;;;;;;;43.10;27.33;;;13.20;99.90;;;;;;5046265;28;20502;-73
2022/09/24 01:58:38;;;;;;;48.03;28.95;;;13.20;99.90;;;;;;5044093;28;20044;-73
2022/09/24 02:01:13;;;;;;;41.70;26.52;;;13.20;99.90;;;;;;5064265;28;20041;-73
2022/09/24 02:03:43;;;;;;;41.20;27.58;;;13.20;99.90;;;;;;5063654;28;20102;-73
2022/09/24 02:06:21;;;;;;;44.88;28.77;;;13.20;99.90;;;;;;5063280;28;20066;-73
2022/09/24 02:08:47;;;;;;;39.08;28.05;;;13.20;99.90;;;;;;5044752;28;20040;-73
2022/09/24 02:11:20;;;;;;;47.90;28.88;;;13.20;99.90;;;;;;5049495;28;20077;-73
2022/09/24 02:14:03;;;;;;;43.58;30.13;;;13.20;99.90;;;;;;5066847;28;20482;-73
2022/09/24 02:16:33;;;;;;;46.35;29.30;;;13.20;99.90;;;;;;5022847;28;20059;-74
2022/09/24 02:19:04;;;;;;;45.78;29.17;;;13.20;99.90;;;;;;5053957;28;20055;-74
2022/09/24 02:21:33;;;;;;;46.30;29.90;;;13.20;99.90;;;;;;5064303;28;20056;-73
2022/09/24 02:24:31;;;;;;;45.07;29.83;;;13.20;99.90;;;;;;5034696;28;20135;-73
2022/09/24 02:26:58;;;;;;;45.03;30.60;;;13.20;99.90;;;;;;4996700;28;20063;-73
2022/09/24 02:29:24;;;;;;;49.58;30.85;;;13.20;99.90;;;;;;5043072;28;20136;-73
2022/09/24 02:31:54;;;;;;;43.28;30.70;;;13.30;99.90;;;;;;5040054;28;20048;-73
2022/09/24 02:34:30;;;;;;;50.17;31.65;;;13.30;99.90;;;;;;5059497;28;20044;-74
2022/09/24 02:37:05;;;;;;;52.10;32.58;;;13.30;99.90;;;;;;5064982;28;20629;-74
2022/09/24 02:39:31;;;;;;;44.30;30.25;;;13.30;99.90;;;;;;5045225;28;20048;-73
2022/09/24 02:41:58;;;;;;;49.25;32.40;;;13.30;99.90;;;;;;5049104;28;20072;-74
2022/09/24 02:44:24;;;;;;;48.28;31.90;;;13.30;99.90;;;;;;5048683;28;20037;-72
2022/09/24 02:46:51;;;;;;;50.45;31.25;;;13.30;99.90;;;;;;5065762;28;20051;-74
2022/09/24 02:49:17;;;;;;;49.13;32.40;;;13.30;99.90;;;;;;5054229;28;20053;-73
2022/09/24 02:51:43;;;;;;;47.85;30.88;;;13.30;99.90;;;;;;5045339;28;20045;-73
2022/09/24 02:54:09;;;;;;;55.63;31.85;;;13.30;99.90;;;;;;5065890;28;20165;-73
2022/09/24 02:56:35;;;;;;;48.95;31.17;;;13.30;99.90;;;;;;5048793;28;20048;-74
2022/09/24 02:59:02;;;;;;;48.83;30.95;;;13.30;99.90;;;;;;5046297;28;20145;-73
2022/09/24 03:01:28;;;;;;;47.05;31.80;;;13.30;99.90;;;;;;5055951;28;20139;-74
2022/09/24 03:03:54;;;;;;;53.70;32.72;;;13.30;99.90;;;;;;5067622;28;20053;-74
2022/09/24 03:06:20;;;;;;;48.35;32.78;;;13.30;99.90;;;;;;5049852;28;20044;-73
2022/09/24 03:08:46;;;;;;;46.90;31.05;;;13.30;99.90;;;;;;5068867;28;20450;-73
2022/09/24 03:11:12;;;;;;;45.00;30.30;;;13.30;99.90;;;;;;5038017;28;20043;-73
2022/09/24 03:13:39;;;;;;;49.17;30.73;;;13.30;99.90;;;;;;5067223;28;20059;-73
2022/09/24 03:16:06;;;;;;;42.17;28.77;;;13.30;99.90;;;;;;5068286;28;20120;-73
2022/09/24 03:18:33;;;;;;;40.80;27.88;;;13.30;99.90;;;;;;5043668;28;20417;-72
2022/09/24 03:21:05;;;;;;;36.90;26.98;;;13.30;99.90;;;;;;5066560;28;20044;-72
2022/09/24 03:23:31;;;;;;;37.38;25.98;;;13.40;99.90;;;;;;5039965;28;20048;-73
2022/09/24 03:25:57;;;;;;;36.90;26.15;;;13.40;99.90;;;;;;5051726;28;20059;-73
2022/09/24 03:28:23;;;;;;;31.38;25.13;;;13.40;99.90;;;;;;5061754;28;20478;-72
2022/09/24 03:31:02;;;;;;;38.03;26.58;;;13.40;99.90;;;;;;5056614;28;20048;-73
2022/09/24 03:33:33;;;;;;;37.57;25.57;;;13.40;99.90;;;;;;5026283;28;20040;-72
2022/09/24 03:36:02;;;;;;;35.63;24.80;;;13.40;99.90;;;;;;5068533;28;20051;-71
2022/09/24 03:38:29;;;;;;;34.72;25.73;;;13.50;99.90;;;;;;5067897;28;20040;-72
2022/09/24 03:40:59;;;;;;;35.22;25.67;;;13.40;99.90;;;;;;5042472;28;20051;-72
2022/09/24 03:43:24;;;;;;;;;;;13.50;99.90;;;;;;5033685;28;20039;-72
2022/09/24 03:45:50;;;;;;;30.77;24.38;;;13.50;99.90;;;;;;5034254;28;19920;-73
2022/09/24 03:48:17;;;;;;;39.35;25.98;;;13.50;99.90;;;;;;5051378;28;20048;-73
2022/09/24 03:50:44;;;;;;;37.58;24.90;;;13.40;99.90;;;;;;5050821;28;20047;-72
2022/09/24 03:53:11;;;;;;;39.65;26.23;;;13.50;99.90;;;;;;5034441;28;20511;-73
2022/09/24 03:55:51;;;;;;;39.00;27.23;;;13.40;99.90;;;;;;5060740;28;20532;-73
2022/09/24 03:58:17;;;;;;;41.40;28.13;;;13.50;99.90;;;;;;5047125;28;20060;-73
2022/09/24 04:00:43;;;;;;;43.33;27.38;;;13.50;99.90;;;;;;5067213;28;20062;-73
2022/09/24 04:03:10;;;;;;;40.05;27.08;;;13.50;99.90;;;;;;5061827;28;20059;-72
2022/09/24 04:05:36;;;;;;;39.08;25.23;;;13.40;99.90;;;;;;5060080;28;20040;-73
2022/09/24 04:08:03;;;;;;;38.40;25.95;;;13.40;99.90;;;;;;5040024;28;20047;-72
2022/09/24 04:10:30;;;;;;;34.75;24.25;;;13.50;99.90;;;;;;5035013;28;20048;-72
2022/09/24 04:12:56;;;;;;;32.30;23.38;;;13.50;99.90;;;;;;5050401;28;20047;-72
2022/09/24 04:15:22;;;;;;;29.35;20.30;;;13.50;99.90;;;;;;5050918;28;20048;-72
2022/09/24 04:17:52;;;;;;;29.50;21.63;;;13.50;99.90;;;;;;5058470;28;20139;-72
2022/09/24 04:20:21;;;;;;;;;;;13.50;99.90;;;;;;5068063;28;20091;-72
2022/09/24 04:22:48;;;;;;;29.40;19.75;;;13.50;99.90;;;;;;5067845;28;19931;-72
2022/09/24 04:25:14;;;;;;;27.67;19.48;;;13.50;99.90;;;;;;5067583;28;20062;-72
2022/09/24 04:27:40;;;;;;;30.13;19.42;;;13.50;99.90;;;;;;5067309;28;20048;-73
2022/09/24 04:30:07;;;;;;;31.27;18.67;;;13.50;99.90;;;;;;5061512;28;20135;-72
2022/09/24 04:32:32;;;;;;;30.23;17.77;;;13.50;99.90;;;;;;5077741;28;20059;-72
2022/09/24 04:34:58;;;;;;;29.10;17.30;;;13.50;99.90;;;;;;5067401;28;20119;-72
2022/09/24 04:37:24;;;;;;;26.88;16.55;;;13.50;99.90;;;;;;5085793;28;20098;-72
2022/09/24 04:39:50;;;;;;;31.70;17.33;;;13.60;99.90;;;;;;5066969;28;20478;-72
2022/09/24 04:42:17;;;;;;;26.17;16.25;;;13.60;99.90;;;;;;5048095;28;20456;-72
2022/09/24 04:44:46;;;;;;;21.63;14.30;;;13.50;99.90;;;;;;5062586;28;20148;-72
2022/09/24 04:47:15;;;;;;;29.10;16.47;;;13.60;99.90;;;;;;5085703;28;20044;-73
2022/09/24 04:49:43;;;;;;;24.20;14.27;;;13.60;99.90;;;;;;5066895;28;20302;-72
2022/09/24 04:52:13;;;;;;;28.25;15.30;;;13.60;99.90;;;;;;5067760;28;20137;-72
2022/09/24 04:54:45;;;;;;;23.25;14.25;;;13.60;99.90;;;;;;5067364;28;20058;-72
2022/09/24 04:57:12;;;;;;;27.48;14.63;;;13.60;99.90;;;;;;5058832;28;20136;-72
2022/09/24 04:59:38;;;;;;;28.23;15.02;;;13.60;99.90;;;;;;5084669;28;20414;-72
2022/09/24 05:02:05;;;;;;;26.60;14.23;;;13.60;99.90;;;;;;5061291;28;20048;-72
2022/09/24 05:04:31;;;;;;;32.55;14.93;;;13.60;99.90;;;;;;5085460;28;20325;-72
2022/09/24 05:06:57;;;;;;;32.40;15.07;;;13.60;99.90;;;;;;5066898;28;20222;-73
2022/09/24 05:09:22;;;;;;;34.58;15.13;;;13.60;99.90;;;;;;5036603;28;20048;-72
2022/09/24 05:11:49;;;;;;;33.20;14.25;;;13.70;99.90;;;;;;5075540;28;20111;-73
2022/09/24 05:14:15;;;;;;;26.77;13.45;;;13.70;99.90;;;;;;5055381;28;20098;-72
2022/09/24 05:16:40;;;;;;;27.88;12.73;;;13.70;99.90;;;;;;5055168;28;20051;-72
2022/09/24 05:19:06;;;;;;;39.03;14.88;;;13.70;99.90;;;;;;5056584;28;20063;-73
2022/09/24 05:21:32;;;;;;;29.98;13.35;;;13.70;99.90;;;;;;5038963;28;20144;-72
2022/09/24 05:23:58;;;;;;;27.95;9.68;;;13.80;99.90;;;;;;5050664;28;20080;-73
2022/09/24 05:29:10;;;;;;;21.02;3.47;;;13.80;99.90;;;;;;5068426;28;20052;-72
2022/09/24 05:31:35;;;;;;;25.67;2.97;;;13.80;99.90;;;;;;5033401;28;20066;-72
2022/09/24 05:34:02;;;;;;;24.52;2.30;;;13.80;99.90;;;;;;5065658;28;20052;-72
2022/09/24 05:36:28;;;;;;;21.48;2.15;;;13.80;99.90;;;;;;5068696;28;20043;-73
2022/09/24 05:38:54;;;;;;;20.13;2.60;;;13.90;99.90;;;;;;5049556;28;20041;-73
2022/09/24 05:41:20;;;;;;;19.02;2.47;;;13.90;99.90;;;;;;5046796;28;20045;-72
2022/09/24 05:43:46;;;;;;;23.65;2.40;;;13.90;99.90;;;;;;5049689;28;20043;-72
2022/09/24 05:46:12;;;;;;;12.93;2.05;;;13.90;99.90;;;;;;5048131;28;20040;-73
2022/09/24 05:48:38;;;;;;;17.63;2.28;;;13.90;99.90;;;;;;5028964;28;20063;-73
2022/09/24 05:51:04;;;;;;;14.63;2.97;;;13.90;99.90;;;;;;5068115;28;20040;-73
2022/09/24 05:53:30;;;;;;;23.67;2.42;;;13.90;99.90;;;;;;5079160;28;20041;-73
2022/09/24 05:55:57;;;;;;;13.93;2.00;;;14.00;99.90;;;;;;5038978;28;20040;-73
2022/09/24 05:58:23;;;;;;;20.98;2.25;;;14.00;99.90;;;;;;5048286;28;20060;-73
2022/09/24 06:00:50;;;;;;;26.25;2.92;;;14.00;99.90;;;;;;5044490;28;20148;-73
2022/09/24 06:03:17;;;;;;;16.50;1.92;;;14.00;99.90;;;;;;5032674;28;20076;-73
2022/09/24 06:05:45;;;;;;;23.73;2.78;;;14.00;99.90;;;;;;5054694;28;20128;-72
2022/09/24 06:08:11;;;;;;;26.52;2.97;;;14.00;99.90;;;;;;5049754;28;20078;-72
2022/09/24 06:10:37;;;;;;;22.30;2.47;;;14.10;99.90;;;;;;5067861;28;20052;-73
2022/09/24 06:13:03;;;;;;;27.20;3.00;;;14.00;99.90;;;;;;5075486;28;20410;-72
2022/09/24 06:15:29;;;;;;;23.70;2.72;;;14.00;99.90;;;;;;5070018;28;20100;-72
2022/09/24 06:17:55;;;;;;;17.10;2.38;;;14.10;99.90;;;;;;5054968;28;20058;-73
2022/09/24 06:20:22;;;;;;;22.33;2.72;;;14.00;99.90;;;;;;5069646;28;20052;-73
2022/09/24 06:22:49;;;;;;;19.15;2.20;;;14.10;99.90;;;;;;5069094;28;20458;-72
2022/09/24 06:25:15;;;;;;;15.70;2.00;;;14.10;99.90;;;;;;5065029;28;20047;-73
2022/09/24 06:27:40;;;;;;;13.40;1.92;;;14.00;99.90;;;;;;5052979;28;20047;-73
2022/09/24 06:30:07;;;;;;;18.30;2.25;;;14.10;99.90;;;;;;5068799;28;20048;-72
2022/09/24 06:32:33;;;;;;;16.65;2.58;;;14.10;99.90;;;;;;5055523;28;20095;-73
2022/09/24 06:34:58;;;;;;;14.35;1.92;;;14.10;99.90;;;;;;5053434;28;20032;-73
2022/09/24 06:37:24;;;;;;;17.00;2.42;;;14.10;99.90;;;;;;5039866;28;20049;-73
2022/09/24 06:39:50;;;;;;;12.05;1.98;;;14.10;99.90;;;;;;5048792;28;20051;-73
2022/09/24 06:42:15;;;;;;;13.43;2.03;;;14.10;99.90;;;;;;5069115;28;20051;-72
2022/09/24 06:44:41;;;;;;;22.40;2.70;;;14.10;99.90;;;;;;5036078;28;20052;-72
2022/09/24 06:47:07;;;;;;;10.57;1.95;;;14.20;99.90;;;;;;5051863;28;20063;-72
2022/09/24 06:49:33;;;;;;;22.95;3.10;;;14.20;99.90;;;;;;5013851;28;20048;-73
2022/09/24 06:51:59;;;;;;;20.75;2.20;;;14.20;99.90;;;;;;5047921;28;20055;-73
2022/09/24 06:54:24;;;;;;;14.77;2.30;;;14.30;99.90;;;;;;5087626;28;20044;-73
2022/09/24 06:56:51;;;;;;;15.10;1.90;;;14.30;99.90;;;;;;5068345;28;20103;-73
2022/09/24 06:59:17;;;;;;;13.63;2.10;;;14.30;99.90;;;;;;5068798;28;20513;-73
2022/09/24 07:01:43;;;;;;;16.95;2.45;;;14.30;99.90;;;;;;5049181;28;20388;-73
2022/09/24 07:04:10;;;;;;;15.05;2.58;;;14.20;99.90;;;;;;5061223;28;20047;-73
2022/09/24 07:09:21;;;;;;;17.48;2.33;;;14.10;99.90;;;;;;5044896;28;20135;-73
2022/09/24 07:11:47;;;;;;;8.70;1.73;;;14.10;99.90;;;;;;5042226;28;20079;-74
2022/09/24 07:14:13;;;;;;;17.02;2.00;;;14.10;99.90;;;;;;5064096;28;20072;-72
2022/09/24 07:16:38;;;;;;;13.82;2.03;;;14.10;99.90;;;;;;5023642;28;20078;-73
2022/09/24 07:19:04;;;;;;;15.32;2.17;;;14.10;99.90;;;;;;5068152;28;20071;-74
2022/09/24 07:21:30;;;;;;;20.88;3.40;;;14.20;99.90;;;;;;5051611;28;20109;-72
2022/09/24 07:23:56;;;;;;;10.82;1.98;;;14.20;99.90;;;;;;5051606;28;20047;-73
2022/09/24 07:26:21;;;;;;;13.77;2.22;;;14.30;99.90;;;;;;5067945;28;20063;-73
2022/09/24 07:28:49;;;;;;;19.52;2.28;;;14.30;99.90;;;;;;5058153;28;20048;-73
2022/09/24 07:31:16;;;;;;;11.55;1.77;;;14.30;99.90;;;;;;5052540;28;20510;-73
2022/09/24 07:33:42;;;;;;;6.15;1.15;;;14.30;99.90;;;;;;5067808;28;20066;-72
2022/09/24 07:36:07;;;;;;;4.22;0.95;;;14.30;99.90;;;;;;5050851;28;20055;-74
2022/09/24 07:38:35;;;;;;;11.05;1.30;;;14.30;99.90;;;;;;5051359;28;20036;-73
2022/09/24 07:41:02;;;;;;;2.97;1.00;;;14.40;99.90;;;;;;5062743;28;20118;-73
2022/09/24 07:43:29;;;;;;;14.77;1.33;;;14.30;99.90;;;;;;5062913;28;20040;-74
2022/09/24 07:45:55;;;;;;;3.70;1.13;;;14.30;99.90;;;;;;5058953;28;20062;-72
2022/09/24 07:48:21;;;;;;;7.25;0.95;;;14.20;99.90;;;;;;5041823;28;20234;-74
2022/09/24 07:50:46;;;;;;;10.73;1.48;;;14.20;99.90;;;;;;5055638;28;20048;-73
2022/09/24 07:53:14;;;;;;;8.68;1.85;;;14.20;99.90;;;;;;5049915;28;20048;-74
2022/09/24 07:55:39;;;;;;;10.93;1.48;;;14.20;99.90;;;;;;5056532;28;20048;-73
2022/09/24 07:58:09;;;;;;;13.68;1.70;;;14.20;99.90;;;;;;5072129;28;20052;-73
2022/09/24 08:00:35;;;;;;;18.90;3.17;;;14.20;99.90;;;;;;5047257;28;20044;-74
2022/09/24 08:03:04;;;;;;;14.95;2.63;;;14.20;99.90;;;;;;5047024;28;20076;-74
2022/09/24 08:05:31;;;;;;;8.27;1.63;;;14.20;99.90;;;;;;5046601;28;20049;-74
2022/09/24 08:07:58;;;;;;;11.65;2.35;;;14.30;99.90;;;;;;5049211;28;20044;-72
2022/09/24 08:10:25;;;;;;;14.40;1.88;;;14.40;99.90;;;;;;5051037;28;20048;-73
2022/09/24 08:12:53;;;;;;;17.38;2.53;;;14.50;99.90;;;;;;5030463;28;20450;-73
2022/09/24 08:15:21;;;;;;;17.15;2.67;;;14.50;99.90;;;;;;5061332;28;20060;-73
2022/09/24 08:17:47;;;;;;;15.32;2.42;;;14.50;99.90;;;;;;5052790;28;20051;-73
2022/09/24 08:20:13;;;;;;;24.45;2.50;;;14.60;99.90;;;;;;5037481;28;20056;-73
2022/09/24 08:22:39;;;;;;;19.95;3.95;;;14.70;99.90;;;;;;5012916;28;20498;-73
2022/09/24 08:25:05;;;;;;;21.55;2.95;;;14.90;99.90;;;;;;5056135;28;20049;-73
2022/09/24 08:27:31;;;;;;;16.67;2.42;;;14.90;99.90;;;;;;5047476;28;20087;-73
2022/09/24 08:29:59;;;;;;;15.52;2.03;;;15.10;99.90;;;;;;5026163;28;20494;-73
2022/09/24 08:32:25;;;;;;;15.85;2.05;;;15.20;99.90;;;;;;5039606;28;20051;-73
2022/09/24 08:34:51;;;;;;;19.70;2.78;;;15.20;99.90;;;;;;5059426;28;20049;-73
2022/09/24 08:37:17;;;;;;;18.35;3.05;;;15.10;99.90;;;;;;5052641;28;20539;-73
2022/09/24 08:39:46;;;;;;;9.07;1.87;;;15.00;99.90;;;;;;5051625;28;20054;-73
2022/09/24 08:42:28;;;;;;;17.05;3.03;;;15.00;99.90;;;;;;5052189;28;20307;-72
2022/09/24 08:47:50;;;;;;;16.95;2.55;;;15.00;99.90;;;;;;5051559;28;20057;-73
2022/09/24 08:50:19;;;;;;;24.25;2.90;;;15.10;99.90;;;;;;5050622;28;20048;-73
2022/09/24 08:53:13;;;;;;;16.73;2.40;;;15.10;99.90;;;;;;5049486;28;20041;-72
2022/09/24 08:55:46;;;;;;;15.40;2.20;;;15.20;99.90;;;;;;5050139;28;20135;-72
2022/09/24 08:58:23;;;;;;;12.70;1.58;;;15.30;99.90;;;;;;5080880;28;20048;-72
2022/09/24 09:01:02;;;;;;;8.63;1.92;;;15.10;99.90;;;;;;5045801;28;20055;-72
2022/09/24 09:03:38;;;;;;;11.70;1.87;;;15.00;99.90;;;;;;5030148;28;20049;-72
2022/09/24 09:06:09;;;;;;;15.57;3.15;;;14.90;99.90;;;;;;5048594;28;20076;-72
2022/09/24 09:08:51;;;;;;;16.55;2.85;;;14.80;99.90;;;;;;5049039;28;20056;-72
2022/09/24 09:11:22;;;;;;;16.73;2.63;;;14.70;99.90;;;;;;5054237;28;20094;-72
2022/09/24 09:13:56;;;;;;;11.77;2.25;;;14.70;99.90;;;;;;5056707;28;20357;-73
2022/09/24 09:16:34;;;;;;;10.07;2.00;;;14.80;99.90;;;;;;5062449;28;20200;-72
2022/09/24 09:19:05;;;;;;;11.20;2.00;;;14.80;99.90;;;;;;5061379;28;20052;-72
2022/09/24 09:21:44;;;;;;;10.55;2.25;;;14.70;99.90;;;;;;5068661;28;20052;-72
2022/09/24 09:24:24;;;;;;;9.13;1.90;;;14.60;99.90;;;;;;5060191;28;20083;-73
2022/09/24 09:26:54;;;;;;;13.80;2.20;;;14.50;99.90;;;;;;5020081;28;20558;-71
2022/09/24 09:29:26;;;;;;;9.52;2.25;;;14.50;99.90;;;;;;5062313;28;20066;-72
2022/09/24 09:32:34;;;;;;;14.60;2.78;;;14.60;99.90;;;;;;5039944;28;20049;-72
2022/09/24 09:35:20;;;;;;;15.73;2.60;;;14.70;99.90;;;;;;5054542;28;20047;-72
2022/09/24 09:38:04;;;;;;;18.92;2.97;;;14.70;99.90;;;;;;5039468;28;20503;-71
2022/09/24 09:40:47;;;;;;;12.95;2.15;;;14.70;99.90;;;;;;5055542;28;20057;-71
2022/09/24 09:43:13;;;;;;;17.67;2.58;;;14.70;99.90;;;;;;5047941;28;20131;-72
2022/09/24 09:45:58;;;;;;;10.20;2.33;;;14.60;99.90;;;;;;5058689;28;20036;-72
2022/09/24 09:48:28;;;;;;;16.02;2.85;;;14.60;99.90;;;;;;5057802;28;20037;-72
2022/09/24 09:51:03;;;;;;;;;;;14.60;99.90;;;;;;5037988;28;20157;-72
2022/09/24 09:53:30;;;;;;;10.35;1.85;;;14.70;99.90;;;;;;5049896;28;19924;-71
2022/09/24 09:56:06;;;;;;;11.20;1.77;;;14.70;99.90;;;;;;5049657;28;20059;-72
2022/09/24 09:58:35;;;;;;;8.80;1.85;;;14.60;99.90;;;;;;5032344;28;20058;-72
2022/09/24 10:01:07;;;;;;;8.95;1.65;;;14.60;99.90;;;;;;5047451;28;20465;-72
2022/09/24 10:03:55;;;;;;;12.68;1.63;;;14.60;99.90;;;;;;5063148;28;20064;-71
2022/09/24 10:06:32;;;;;;;8.77;1.73;;;14.60;99.90;;;;;;5029885;28;20040;-71
2022/09/24 10:09:21;;;;;;;10.95;1.65;;;14.50;99.90;;;;;;5047979;28;20044;-71
2022/09/24 10:11:47;;;;;;;8.73;1.50;;;14.30;99.90;;;;;;5052274;28;20053;-72
2022/09/24 10:14:17;;;;;;;13.07;1.67;;;14.30;99.90;;;;;;5065001;28;20446;-73
2022/09/24 10:16:43;;;;;;;;;;;14.30;99.90;;;;;;5043764;28;20048;-71
2022/09/24 10:19:22;;;;;;;8.02;1.05;;;14.30;99.90;;;;;;5046719;28;19921;-72
2022/09/24 10:21:49;;;;;;;8.43;1.27;;;14.30;99.90;;;;;;5047523;28;20506;-71
2022/09/24 10:24:25;;;;;;;6.90;1.38;;;14.30;99.90;;;;;;5047460;28;20045;-72
2022/09/24 10:26:52;;;;;;;9.95;1.88;;;14.30;99.90;;;;;;5049136;28;20052;-72
2022/09/24 10:32:15;;;;;;;14.40;1.85;;;14.40;99.90;;;;;;5061841;28;20036;-72
2022/09/24 10:34:41;;;;;;;6.65;1.30;;;14.40;99.90;;;;;;5057752;28;20053;-72
2022/09/24 10:37:15;;;;;;;7.82;1.23;;;14.50;99.90;;;;;;5059618;28;20051;-72
2022/09/24 10:39:42;;;;;;;8.18;1.23;;;14.50;99.90;;;;;;5049109;28;20052;-72
2022/09/24 10:42:25;;;;;;;11.57;1.75;;;14.40;99.90;;;;;;5032007;28;20103;-71
2022/09/24 10:44:52;;;;;;;7.35;1.40;;;14.40;99.90;;;;;;5050729;28;20063;-71
2022/09/24 10:47:18;;;;;;;10.15;1.52;;;14.50;99.90;;;;;;5056846;28;20080;-72
2022/09/24 10:49:59;;;;;;;12.57;2.15;;;14.50;99.90;;;;;;5056451;28;20083;-71
2022/09/24 10:52:34;;;;;;;9.93;1.00;;;14.50;99.90;;;;;;5048044;28;20049;-71
2022/09/24 10:55:25;;;;;;;9.57;1.70;;;14.50;99.90;;;;;;5048656;28;20491;-72
2022/09/24 10:58:03;;;;;;;11.20;1.58;;;14.60;99.90;;;;;;5048953;28;20052;-71
2022/09/24 11:00:31;;;;;;;12.60;2.50;;;14.60;99.90;;;;;;5036799;28;20418;-71
2022/09/24 11:03:23;;;;;;;11.23;1.50;;;14.60;99.90;;;;;;5045613;28;20139;-72
2022/09/24 11:05:59;;;;;;;8.40;1.38;;;14.60;99.90;;;;;;5042723;28;20155;-72
2022/09/24 11:09:07;;;;;;;6.72;1.75;;;14.60;99.90;;;;;;5047313;28;20052;-72
2022/09/24 11:11:44;;;;;;;10.05;1.50;;;14.60;99.90;;;;;;5044426;28;20055;-71
2022/09/24 11:14:20;;;;;;;9.50;2.20;;;14.60;99.90;;;;;;5068810;28;20557;-71
2022/09/24 11:16:56;;;;;;;7.75;2.08;;;14.50;99.90;;;;;;5068687;28;20156;-72
2022/09/24 11:19:27;;;;;;;9.73;1.42;;;14.50;99.90;;;;;;5066454;28;20058;-72
2022/09/24 11:22:13;;;;;;;7.78;1.20;;;14.50;99.90;;;;;;5031913;28;20170;-72
2022/09/24 11:25:01;;;;;;;8.23;1.27;;;14.50;99.90;;;;;;5066069;28;20051;-71
2022/09/24 11:28:04;;;;;;;5.93;1.30;;;14.40;99.90;;;;;;5051750;28;20051;-71
2022/09/24 11:31:07;;;;;;;8.50;1.58;;;14.40;99.90;;;;;;5014919;28;20908;-72
2022/09/24 11:33:55;;;;;;;5.07;0.90;;;14.30;99.90;;;;;;5053425;28;20085;-71
2022/09/24 11:36:40;;;;;;;6.47;1.25;;;14.30;99.90;;;;;;5086146;28;20079;-72
2022/09/24 11:39:12;;;;;;;5.00;1.42;;;14.50;99.90;;;;;;5051836;28;20052;-72
2022/09/24 11:41:44;;;;;;;9.30;1.42;;;14.50;99.90;;;;;;5048374;28;20097;-72
2022/09/24 11:44:29;;;;;;;10.57;1.70;;;14.50;99.90;;;;;;5049407;28;20048;-71
2022/09/24 11:47:32;;;;;;;4.70;1.42;;;14.60;99.90;;;;;;5071332;28;20490;-71
2022/09/24 11:50:25;;;;;;;9.23;1.85;;;14.70;99.90;;;;;;5067460;28;20052;-71
2022/09/24 11:53:12;;;;;;;12.85;2.15;;;14.70;99.90;;;;;;5060996;28;20055;-72
2022/09/24 11:55:52;;;;;;;9.40;1.35;;;14.70;99.90;;;;;;5041694;28;20108;-71
2022/09/24 11:58:22;;;;;;;;;;;14.60;99.90;;;;;;5068242;28;20051;-72
2022/09/24 12:00:53;;;;;;;10.02;1.50;;;14.60;99.90;;;;;;5043728;28;19924;-72
2022/09/24 12:03:42;;;;;;;6.85;1.63;;;14.60;99.90;;;;;;5059082;28;20052;-71
2022/09/24 12:06:13;;;;;;;8.38;1.45;;;14.50;99.90;;;;;;5008107;28;20057;-72
2022/09/24 12:09:01;;;;;;;6.68;1.60;;;14.50;99.90;;;;;;5046009;28;20047;-72
2022/09/24 12:11:40;;;;;;;13.88;1.73;;;14.50;99.90;;;;;;5042110;28;20052;-72
2022/09/24 12:14:17;;;;;;;8.32;1.60;;;14.50;99.90;;;;;;5034963;28;20048;-72
2022/09/24 12:16:46;;;;;;;10.20;2.10;;;14.50;99.90;;;;;;5067653;28;20585;-72
2022/09/24 12:19:40;;;;;;;8.75;1.83;;;14.50;99.90;;;;;;5053711;28;20058;-71
2022/09/24 12:22:09;;;;;;;10.02;1.63;;;14.40;99.90;;;;;;5058972;28;20060;-72
2022/09/24 12:24:42;;;;;;;10.38;1.67;;;14.40;99.90;;;;;;5066140;28;20040;-72
2022/09/24 12:27:20;;;;;;;9.43;2.00;;;14.30;99.90;;;;;;5072218;28;20051;-71
2022/09/24 12:33:34;;;;;;;8.10;2.08;;;14.30;99.90;;;;;;5044299;28;20147;-71
2022/09/24 12:36:08;;;;;;;7.68;1.98;;;14.20;99.90;;;;;;5045482;28;20051;-72
2022/09/24 12:38:42;;;;;;;9.00;1.90;;;14.20;99.90;;;;;;5037767;28;20056;-72
2022/09/24 12:41:27;;;;;;;12.77;3.85;;;14.10;99.90;;;;;;5065217;28;20060;-72
2022/09/24 12:44:11;;;;;;;11.95;3.05;;;14.20;99.90;;;;;;5037921;28;20124;-71
2022/09/24 12:46:41;;;;;;;7.93;2.40;;;14.20;99.90;;;;;;5065113;28;20064;-72
2022/09/24 12:49:25;;;;;;;16.25;2.95;;;14.20;99.90;;;;;;5052053;28;20495;-72
2022/09/24 12:51:53;;;;;;;11.73;2.92;;;14.10;99.90;;;;;;5087639;28;20044;-72
2022/09/24 12:54:36;;;;;;;13.40;2.78;;;14.10;99.90;;;;;;5071494;28;20054;-72
2022/09/24 12:57:09;;;;;;;21.35;3.60;;;14.10;99.90;;;;;;5081090;28;20048;-72
2022/09/24 12:59:48;;;;;;;13.00;2.65;;;14.10;99.90;;;;;;5088845;28;20060;-71
2022/09/24 13:02:24;;;;;;;8.32;2.55;;;14.20;99.90;;;;;;5062137;28;20048;-72
2022/09/24 13:05:16;;;;;;;8.73;2.65;;;14.20;99.90;;;;;;5070956;28;20067;-71
2022/09/24 13:08:01;;;;;;;8.50;2.63;;;14.20;99.90;;;;;;5024252;28;20056;-72
2022/09/24 13:10:33;;;;;;;13.35;3.08;;;14.20;99.90;;;;;;5072388;28;20044;-71
2022/09/24 13:13:00;;;;;;;19.30;3.55;;;14.20;99.90;;;;;;5071037;28;20399;-71
2022/09/24 13:15:32;;;;;;;13.77;2.58;;;14.20;99.90;;;;;;5070710;28;20087;-72
2022/09/24 13:18:29;;;;;;;12.13;3.03;;;14.30;99.90;;;;;;5088797;28;20653;-72